sensor_id;sensor_type;location;lat;lon;timestamp;P1;durP1;ratioP1;P2;durP2;ratioP2
8982;SDS011;20979;59.850;10.660;2024-02-21T00:00:01;9.73;;;6.13;;
8982;SDS011;20979;59.850;10.660;2024-02-21T00:02:29;10.70;;;6.87;;
8982;SDS011;20979;59.850;10.660;2024-02-21T00:04:57;9.67;;;6.53;;
8982;SDS011;20979;59.850;10.660;2024-02-21T00:07:24;13.23;;;7.40;;
8982;SDS011;20979;59.850;10.660;2024-02-21T00:09:51;12.30;;;7.63;;
8982;SDS011;20979;59.850;10.660;2024-02-21T00:12:19;11.03;;;6.50;;
8982;SDS011;20979;59.850;10.660;2024-02-21T00:14:47;31.90;;;7.20;;
8982;SDS011;20979;59.850;10.660;2024-02-21T00:17:15;58.33;;;8.60;;
8982;SDS011;20979;59.850;10.660;2024-02-21T00:19:42;8.93;;;6.20;;
8982;SDS011;20979;59.850;10.660;2024-02-21T00:22:09;7.57;;;5.57;;
8982;SDS011;20979;59.850;10.660;2024-02-21T00:24:37;9.30;;;5.93;;
8982;SDS011;20979;59.850;10.660;2024-02-21T00:27:04;14.30;;;6.30;;
8982;SDS011;20979;59.850;10.660;2024-02-21T00:29:31;23.90;;;6.70;;
8982;SDS011;20979;59.850;10.660;2024-02-21T00:32:01;17.57;;;5.87;;
8982;SDS011;20979;59.850;10.660;2024-02-21T00:34:28;8.43;;;5.37;;
8982;SDS011;20979;59.850;10.660;2024-02-21T00:36:55;13.17;;;6.40;;
8982;SDS011;20979;59.850;10.660;2024-02-21T00:39:23;9.23;;;5.77;;
8982;SDS011;20979;59.850;10.660;2024-02-21T00:41:50;10.73;;;5.57;;
8982;SDS011;20979;59.850;10.660;2024-02-21T00:44:17;14.00;;;6.10;;
8982;SDS011;20979;59.850;10.660;2024-02-21T00:46:45;12.40;;;5.93;;
8982;SDS011;20979;59.850;10.660;2024-02-21T00:49:13;19.33;;;6.60;;
8982;SDS011;20979;59.850;10.660;2024-02-21T00:51:41;14.30;;;6.50;;
8982;SDS011;20979;59.850;10.660;2024-02-21T00:54:08;40.80;;;8.53;;
8982;SDS011;20979;59.850;10.660;2024-02-21T00:56:36;111.57;;;14.13;;
8982;SDS011;20979;59.850;10.660;2024-02-21T00:59:03;100.40;;;13.37;;
8982;SDS011;20979;59.850;10.660;2024-02-21T01:01:30;246.17;;;22.30;;
8982;SDS011;20979;59.850;10.660;2024-02-21T01:03:58;220.67;;;22.57;;
8982;SDS011;20979;59.850;10.660;2024-02-21T01:06:27;165.67;;;17.70;;
8982;SDS011;20979;59.850;10.660;2024-02-21T01:08:54;179.33;;;18.97;;
8982;SDS011;20979;59.850;10.660;2024-02-21T01:11:21;128.73;;;14.93;;
8982;SDS011;20979;59.850;10.660;2024-02-21T01:13:48;83.57;;;11.30;;
8982;SDS011;20979;59.850;10.660;2024-02-21T01:16:16;169.50;;;18.97;;
8982;SDS011;20979;59.850;10.660;2024-02-21T01:18:43;162.60;;;17.00;;
8982;SDS011;20979;59.850;10.660;2024-02-21T01:21:10;65.37;;;10.37;;
8982;SDS011;20979;59.850;10.660;2024-02-21T01:23:39;72.23;;;12.13;;
8982;SDS011;20979;59.850;10.660;2024-02-21T01:26:07;208.00;;;20.30;;
8982;SDS011;20979;59.850;10.660;2024-02-21T01:28:38;169.10;;;17.67;;
8982;SDS011;20979;59.850;10.660;2024-02-21T01:31:05;79.33;;;11.17;;
8982;SDS011;20979;59.850;10.660;2024-02-21T01:33:32;45.17;;;8.13;;
8982;SDS011;20979;59.850;10.660;2024-02-21T01:36:00;25.23;;;6.23;;
8982;SDS011;20979;59.850;10.660;2024-02-21T01:38:28;55.27;;;8.77;;
8982;SDS011;20979;59.850;10.660;2024-02-21T01:40:58;53.87;;;7.03;;
8982;SDS011;20979;59.850;10.660;2024-02-21T01:43:25;67.87;;;8.20;;
8982;SDS011;20979;59.850;10.660;2024-02-21T01:45:53;35.70;;;6.67;;
8982;SDS011;20979;59.850;10.660;2024-02-21T01:48:21;36.77;;;6.80;;
8982;SDS011;20979;59.850;10.660;2024-02-21T01:50:50;129.23;;;13.10;;
8982;SDS011;20979;59.850;10.660;2024-02-21T01:53:18;103.43;;;11.40;;
8982;SDS011;20979;59.850;10.660;2024-02-21T01:55:46;35.60;;;6.47;;
8982;SDS011;20979;59.850;10.660;2024-02-21T01:58:16;168.73;;;16.07;;
8982;SDS011;20979;59.850;10.660;2024-02-21T02:00:44;71.73;;;7.87;;
8982;SDS011;20979;59.850;10.660;2024-02-21T02:03:12;65.63;;;9.10;;
8982;SDS011;20979;59.850;10.660;2024-02-21T02:05:42;47.60;;;7.43;;
8982;SDS011;20979;59.850;10.660;2024-02-21T02:08:10;28.80;;;6.23;;
8982;SDS011;20979;59.850;10.660;2024-02-21T02:10:38;74.70;;;9.73;;
8982;SDS011;20979;59.850;10.660;2024-02-21T02:13:06;93.97;;;10.30;;
8982;SDS011;20979;59.850;10.660;2024-02-21T02:15:41;72.30;;;9.90;;
8982;SDS011;20979;59.850;10.660;2024-02-21T02:18:09;76.80;;;10.13;;
8982;SDS011;20979;59.850;10.660;2024-02-21T02:20:37;117.00;;;11.57;;
8982;SDS011;20979;59.850;10.660;2024-02-21T02:23:06;119.43;;;13.50;;
8982;SDS011;20979;59.850;10.660;2024-02-21T02:25:36;145.40;;;17.10;;
8982;SDS011;20979;59.850;10.660;2024-02-21T02:28:03;187.10;;;17.77;;
8982;SDS011;20979;59.850;10.660;2024-02-21T02:30:31;111.57;;;13.83;;
8982;SDS011;20979;59.850;10.660;2024-02-21T02:33:01;202.80;;;19.60;;
8982;SDS011;20979;59.850;10.660;2024-02-21T02:35:28;96.40;;;11.90;;
8982;SDS011;20979;59.850;10.660;2024-02-21T02:37:56;118.73;;;13.40;;
8982;SDS011;20979;59.850;10.660;2024-02-21T02:40:23;84.93;;;12.20;;
8982;SDS011;20979;59.850;10.660;2024-02-21T02:42:52;75.67;;;11.00;;
8982;SDS011;20979;59.850;10.660;2024-02-21T02:45:20;77.97;;;11.20;;
8982;SDS011;20979;59.850;10.660;2024-02-21T02:47:49;62.63;;;9.03;;
8982;SDS011;20979;59.850;10.660;2024-02-21T02:50:16;18.20;;;5.90;;
8982;SDS011;20979;59.850;10.660;2024-02-21T02:52:43;101.07;;;12.57;;
8982;SDS011;20979;59.850;10.660;2024-02-21T02:55:11;46.47;;;8.63;;
8982;SDS011;20979;59.850;10.660;2024-02-21T02:57:38;57.03;;;8.47;;
8982;SDS011;20979;59.850;10.660;2024-02-21T03:00:09;65.27;;;8.77;;
8982;SDS011;20979;59.850;10.660;2024-02-21T03:02:37;37.37;;;7.43;;
8982;SDS011;20979;59.850;10.660;2024-02-21T03:05:11;51.47;;;7.47;;
8982;SDS011;20979;59.850;10.660;2024-02-21T03:07:38;58.37;;;8.33;;
8982;SDS011;20979;59.850;10.660;2024-02-21T03:10:06;48.13;;;8.20;;
8982;SDS011;20979;59.850;10.660;2024-02-21T03:12:33;30.87;;;7.03;;
8982;SDS011;20979;59.850;10.660;2024-02-21T03:15:01;63.63;;;8.87;;
8982;SDS011;20979;59.850;10.660;2024-02-21T03:17:29;56.67;;;8.57;;
8982;SDS011;20979;59.850;10.660;2024-02-21T03:19:57;69.67;;;9.30;;
8982;SDS011;20979;59.850;10.660;2024-02-21T03:22:25;60.10;;;9.60;;
8982;SDS011;20979;59.850;10.660;2024-02-21T03:24:52;51.07;;;7.83;;
8982;SDS011;20979;59.850;10.660;2024-02-21T03:27:20;90.37;;;9.67;;
8982;SDS011;20979;59.850;10.660;2024-02-21T03:29:47;18.10;;;5.93;;
8982;SDS011;20979;59.850;10.660;2024-02-21T03:32:14;33.57;;;7.40;;
8982;SDS011;20979;59.850;10.660;2024-02-21T03:34:43;52.73;;;7.53;;
8982;SDS011;20979;59.850;10.660;2024-02-21T03:37:10;28.33;;;6.27;;
8982;SDS011;20979;59.850;10.660;2024-02-21T03:39:39;38.27;;;7.33;;
8982;SDS011;20979;59.850;10.660;2024-02-21T03:42:06;32.00;;;7.33;;
8982;SDS011;20979;59.850;10.660;2024-02-21T03:44:34;58.87;;;8.10;;
8982;SDS011;20979;59.850;10.660;2024-02-21T03:47:01;93.10;;;8.57;;
8982;SDS011;20979;59.850;10.660;2024-02-21T03:49:29;38.50;;;7.20;;
8982;SDS011;20979;59.850;10.660;2024-02-21T03:51:57;32.07;;;6.23;;
8982;SDS011;20979;59.850;10.660;2024-02-21T03:54:25;43.77;;;8.00;;
8982;SDS011;20979;59.850;10.660;2024-02-21T03:56:52;25.23;;;6.77;;
8982;SDS011;20979;59.850;10.660;2024-02-21T03:59:20;30.87;;;7.13;;
8982;SDS011;20979;59.850;10.660;2024-02-21T04:01:51;66.90;;;8.43;;
8982;SDS011;20979;59.850;10.660;2024-02-21T04:04:18;56.27;;;8.70;;
8982;SDS011;20979;59.850;10.660;2024-02-21T04:06:46;32.83;;;6.73;;
8982;SDS011;20979;59.850;10.660;2024-02-21T04:09:15;18.87;;;6.00;;
8982;SDS011;20979;59.850;10.660;2024-02-21T04:11:42;65.27;;;8.23;;
8982;SDS011;20979;59.850;10.660;2024-02-21T04:14:10;37.77;;;6.43;;
8982;SDS011;20979;59.850;10.660;2024-02-21T04:16:37;31.77;;;6.30;;
8982;SDS011;20979;59.850;10.660;2024-02-21T04:19:05;24.70;;;6.00;;
8982;SDS011;20979;59.850;10.660;2024-02-21T04:21:32;45.47;;;7.43;;
8982;SDS011;20979;59.850;10.660;2024-02-21T04:24:00;51.70;;;7.97;;
8982;SDS011;20979;59.850;10.660;2024-02-21T04:26:31;38.60;;;6.97;;
8982;SDS011;20979;59.850;10.660;2024-02-21T04:28:59;53.73;;;7.20;;
8982;SDS011;20979;59.850;10.660;2024-02-21T04:31:26;40.23;;;7.33;;
8982;SDS011;20979;59.850;10.660;2024-02-21T04:33:53;35.23;;;6.73;;
8982;SDS011;20979;59.850;10.660;2024-02-21T04:36:21;43.17;;;7.90;;
8982;SDS011;20979;59.850;10.660;2024-02-21T04:38:48;36.63;;;7.17;;
8982;SDS011;20979;59.850;10.660;2024-02-21T04:41:16;76.43;;;8.93;;
8982;SDS011;20979;59.850;10.660;2024-02-21T04:43:45;59.30;;;8.50;;
8982;SDS011;20979;59.850;10.660;2024-02-21T04:46:13;50.17;;;7.50;;
8982;SDS011;20979;59.850;10.660;2024-02-21T04:48:40;55.37;;;8.13;;
8982;SDS011;20979;59.850;10.660;2024-02-21T04:51:08;30.03;;;7.27;;
8982;SDS011;20979;59.850;10.660;2024-02-21T04:53:35;68.33;;;9.60;;
8982;SDS011;20979;59.850;10.660;2024-02-21T04:56:03;72.03;;;8.93;;
8982;SDS011;20979;59.850;10.660;2024-02-21T04:58:30;41.73;;;7.20;;
8982;SDS011;20979;59.850;10.660;2024-02-21T05:00:59;63.93;;;8.87;;
8982;SDS011;20979;59.850;10.660;2024-02-21T05:03:27;123.33;;;16.27;;
8982;SDS011;20979;59.850;10.660;2024-02-21T05:05:54;139.10;;;13.73;;
8982;SDS011;20979;59.850;10.660;2024-02-21T05:08:21;134.97;;;16.87;;
8982;SDS011;20979;59.850;10.660;2024-02-21T05:10:49;239.70;;;21.07;;
8982;SDS011;20979;59.850;10.660;2024-02-21T05:13:16;294.63;;;24.83;;
8982;SDS011;20979;59.850;10.660;2024-02-21T05:15:43;210.43;;;19.90;;
8982;SDS011;20979;59.850;10.660;2024-02-21T05:18:12;268.50;;;25.47;;
8982;SDS011;20979;59.850;10.660;2024-02-21T05:20:39;94.20;;;12.27;;
8982;SDS011;20979;59.850;10.660;2024-02-21T05:23:07;79.27;;;10.97;;
8982;SDS011;20979;59.850;10.660;2024-02-21T05:25:34;324.33;;;30.33;;
8982;SDS011;20979;59.850;10.660;2024-02-21T05:28:04;233.97;;;24.30;;
8982;SDS011;20979;59.850;10.660;2024-02-21T05:30:31;81.20;;;11.93;;
8982;SDS011;20979;59.850;10.660;2024-02-21T05:32:58;47.80;;;7.33;;
8982;SDS011;20979;59.850;10.660;2024-02-21T05:35:28;100.00;;;11.97;;
8982;SDS011;20979;59.850;10.660;2024-02-21T05:37:55;41.80;;;7.87;;
8982;SDS011;20979;59.850;10.660;2024-02-21T05:40:24;10.07;;;4.40;;
8982;SDS011;20979;59.850;10.660;2024-02-21T05:42:52;52.87;;;7.90;;
8982;SDS011;20979;59.850;10.660;2024-02-21T05:45:19;132.67;;;12.30;;
8982;SDS011;20979;59.850;10.660;2024-02-21T05:47:46;32.40;;;6.43;;
8982;SDS011;20979;59.850;10.660;2024-02-21T05:50:14;10.63;;;4.60;;
8982;SDS011;20979;59.850;10.660;2024-02-21T05:52:43;16.90;;;5.97;;
8982;SDS011;20979;59.850;10.660;2024-02-21T05:55:11;10.97;;;5.43;;
8982;SDS011;20979;59.850;10.660;2024-02-21T05:57:39;14.07;;;5.13;;
8982;SDS011;20979;59.850;10.660;2024-02-21T06:00:07;12.27;;;5.17;;
8982;SDS011;20979;59.850;10.660;2024-02-21T06:02:35;8.70;;;4.50;;
8982;SDS011;20979;59.850;10.660;2024-02-21T06:05:02;11.50;;;5.10;;
8982;SDS011;20979;59.850;10.660;2024-02-21T06:07:32;6.57;;;4.53;;
8982;SDS011;20979;59.850;10.660;2024-02-21T06:10:01;8.67;;;4.97;;
8982;SDS011;20979;59.850;10.660;2024-02-21T06:12:29;5.43;;;4.13;;
8982;SDS011;20979;59.850;10.660;2024-02-21T06:14:56;9.87;;;4.67;;
8982;SDS011;20979;59.850;10.660;2024-02-21T06:17:23;9.47;;;5.00;;
8982;SDS011;20979;59.850;10.660;2024-02-21T06:19:51;17.13;;;5.30;;
8982;SDS011;20979;59.850;10.660;2024-02-21T06:22:18;12.07;;;4.83;;
8982;SDS011;20979;59.850;10.660;2024-02-21T06:24:46;17.60;;;5.00;;
8982;SDS011;20979;59.850;10.660;2024-02-21T06:27:15;13.83;;;4.73;;
8982;SDS011;20979;59.850;10.660;2024-02-21T06:29:42;11.20;;;4.50;;
8982;SDS011;20979;59.850;10.660;2024-02-21T06:32:10;7.27;;;3.80;;
8982;SDS011;20979;59.850;10.660;2024-02-21T06:34:37;12.13;;;3.90;;
8982;SDS011;20979;59.850;10.660;2024-02-21T06:37:05;12.70;;;5.03;;
8982;SDS011;20979;59.850;10.660;2024-02-21T06:39:32;40.70;;;6.70;;
8982;SDS011;20979;59.850;10.660;2024-02-21T06:41:59;7.33;;;4.87;;
8982;SDS011;20979;59.850;10.660;2024-02-21T06:44:28;11.67;;;5.27;;
8982;SDS011;20979;59.850;10.660;2024-02-21T06:46:57;9.10;;;4.97;;
8982;SDS011;20979;59.850;10.660;2024-02-21T06:49:24;10.77;;;4.50;;
8982;SDS011;20979;59.850;10.660;2024-02-21T06:51:51;17.77;;;6.33;;
8982;SDS011;20979;59.850;10.660;2024-02-21T06:54:19;7.77;;;4.73;;
8982;SDS011;20979;59.850;10.660;2024-02-21T06:56:46;23.30;;;5.67;;
8982;SDS011;20979;59.850;10.660;2024-02-21T06:59:13;8.87;;;4.80;;
8982;SDS011;20979;59.850;10.660;2024-02-21T07:01:45;9.97;;;5.67;;
8982;SDS011;20979;59.850;10.660;2024-02-21T07:04:12;17.23;;;5.93;;
8982;SDS011;20979;59.850;10.660;2024-02-21T07:06:40;84.50;;;10.70;;
8982;SDS011;20979;59.850;10.660;2024-02-21T07:09:08;16.97;;;5.80;;
8982;SDS011;20979;59.850;10.660;2024-02-21T07:11:35;31.17;;;6.10;;
8982;SDS011;20979;59.850;10.660;2024-02-21T07:14:03;18.70;;;6.73;;
8982;SDS011;20979;59.850;10.660;2024-02-21T07:16:30;7.53;;;4.93;;
8982;SDS011;20979;59.850;10.660;2024-02-21T07:18:59;6.50;;;4.53;;
8982;SDS011;20979;59.850;10.660;2024-02-21T07:21:27;5.83;;;4.50;;
8982;SDS011;20979;59.850;10.660;2024-02-21T07:23:54;4.90;;;4.27;;
8982;SDS011;20979;59.850;10.660;2024-02-21T07:26:21;6.60;;;3.93;;
8982;SDS011;20979;59.850;10.660;2024-02-21T07:28:49;6.03;;;4.03;;
8982;SDS011;20979;59.850;10.660;2024-02-21T07:31:16;4.87;;;4.00;;
8982;SDS011;20979;59.850;10.660;2024-02-21T07:33:43;4.40;;;3.87;;
8982;SDS011;20979;59.850;10.660;2024-02-21T07:36:12;5.50;;;4.30;;
8982;SDS011;20979;59.850;10.660;2024-02-21T07:38:40;6.60;;;4.23;;
8982;SDS011;20979;59.850;10.660;2024-02-21T07:41:07;6.00;;;4.50;;
8982;SDS011;20979;59.850;10.660;2024-02-21T07:43:34;6.23;;;4.80;;
8982;SDS011;20979;59.850;10.660;2024-02-21T07:46:02;5.33;;;4.10;;
8982;SDS011;20979;59.850;10.660;2024-02-21T07:48:29;5.03;;;3.87;;
8982;SDS011;20979;59.850;10.660;2024-02-21T07:50:57;4.10;;;3.43;;
8982;SDS011;20979;59.850;10.660;2024-02-21T07:53:26;4.57;;;3.73;;
8982;SDS011;20979;59.850;10.660;2024-02-21T07:55:53;4.60;;;3.30;;
8982;SDS011;20979;59.850;10.660;2024-02-21T07:58:20;4.17;;;3.77;;
8982;SDS011;20979;59.850;10.660;2024-02-21T08:00:48;3.90;;;3.50;;
8982;SDS011;20979;59.850;10.660;2024-02-21T08:03:15;3.93;;;3.40;;
8982;SDS011;20979;59.850;10.660;2024-02-21T08:05:43;3.43;;;3.00;;
8982;SDS011;20979;59.850;10.660;2024-02-21T08:08:10;3.27;;;3.00;;
8982;SDS011;20979;59.850;10.660;2024-02-21T08:10:44;3.00;;;2.70;;
8982;SDS011;20979;59.850;10.660;2024-02-21T08:13:12;2.90;;;2.60;;
8982;SDS011;20979;59.850;10.660;2024-02-21T08:15:39;3.07;;;2.70;;
8982;SDS011;20979;59.850;10.660;2024-02-21T08:18:07;3.03;;;2.53;;
8982;SDS011;20979;59.850;10.660;2024-02-21T08:20:34;2.73;;;2.53;;
8982;SDS011;20979;59.850;10.660;2024-02-21T08:23:01;2.50;;;2.30;;
8982;SDS011;20979;59.850;10.660;2024-02-21T08:25:29;2.73;;;2.53;;
8982;SDS011;20979;59.850;10.660;2024-02-21T08:27:58;3.70;;;2.57;;
8982;SDS011;20979;59.850;10.660;2024-02-21T08:30:26;3.43;;;2.60;;
8982;SDS011;20979;59.850;10.660;2024-02-21T08:32:53;2.53;;;2.33;;
8982;SDS011;20979;59.850;10.660;2024-02-21T08:35:20;3.03;;;2.70;;
8982;SDS011;20979;59.850;10.660;2024-02-21T08:37:48;2.33;;;2.10;;
8982;SDS011;20979;59.850;10.660;2024-02-21T08:40:16;3.57;;;2.60;;
8982;SDS011;20979;59.850;10.660;2024-02-21T08:42:46;3.00;;;2.43;;
8982;SDS011;20979;59.850;10.660;2024-02-21T08:45:15;4.67;;;2.33;;
8982;SDS011;20979;59.850;10.660;2024-02-21T08:47:43;2.50;;;2.30;;
8982;SDS011;20979;59.850;10.660;2024-02-21T08:50:10;2.10;;;2.00;;
8982;SDS011;20979;59.850;10.660;2024-02-21T08:52:38;1.50;;;1.40;;
8982;SDS011;20979;59.850;10.660;2024-02-21T08:55:05;1.53;;;1.43;;
8982;SDS011;20979;59.850;10.660;2024-02-21T08:57:33;1.30;;;1.20;;
8982;SDS011;20979;59.850;10.660;2024-02-21T09:00:03;1.67;;;1.53;;
8982;SDS011;20979;59.850;10.660;2024-02-21T09:02:36;1.43;;;1.33;;
8982;SDS011;20979;59.850;10.660;2024-02-21T09:05:04;1.40;;;1.30;;
8982;SDS011;20979;59.850;10.660;2024-02-21T09:07:31;1.20;;;1.10;;
8982;SDS011;20979;59.850;10.660;2024-02-21T09:09:59;1.43;;;1.33;;
8982;SDS011;20979;59.850;10.660;2024-02-21T09:12:27;1.47;;;1.37;;
8982;SDS011;20979;59.850;10.660;2024-02-21T09:14:54;1.40;;;1.30;;
8982;SDS011;20979;59.850;10.660;2024-02-21T09:17:22;1.30;;;1.20;;
8982;SDS011;20979;59.850;10.660;2024-02-21T09:19:51;1.00;;;1.00;;
8982;SDS011;20979;59.850;10.660;2024-02-21T09:22:21;1.10;;;1.10;;
8982;SDS011;20979;59.850;10.660;2024-02-21T09:24:48;0.90;;;0.90;;
8982;SDS011;20979;59.850;10.660;2024-02-21T09:27:15;1.90;;;1.50;;
8982;SDS011;20979;59.850;10.660;2024-02-21T09:29:43;1.40;;;1.30;;
8982;SDS011;20979;59.850;10.660;2024-02-21T09:32:10;1.20;;;1.20;;
8982;SDS011;20979;59.850;10.660;2024-02-21T09:34:38;1.60;;;1.50;;
8982;SDS011;20979;59.850;10.660;2024-02-21T09:37:07;2.10;;;1.63;;
8982;SDS011;20979;59.850;10.660;2024-02-21T09:39:34;1.20;;;1.10;;
8982;SDS011;20979;59.850;10.660;2024-02-21T09:42:04;1.63;;;1.50;;
8982;SDS011;20979;59.850;10.660;2024-02-21T09:44:33;1.57;;;1.47;;
8982;SDS011;20979;59.850;10.660;2024-02-21T09:47:03;1.40;;;1.30;;
8982;SDS011;20979;59.850;10.660;2024-02-21T09:49:31;1.10;;;1.10;;
8982;SDS011;20979;59.850;10.660;2024-02-21T09:52:00;1.60;;;1.50;;
8982;SDS011;20979;59.850;10.660;2024-02-21T09:54:30;1.70;;;1.60;;
8982;SDS011;20979;59.850;10.660;2024-02-21T09:56:57;2.13;;;1.93;;
8982;SDS011;20979;59.850;10.660;2024-02-21T09:59:25;4.97;;;1.80;;
8982;SDS011;20979;59.850;10.660;2024-02-21T10:01:53;1.90;;;1.80;;
8982;SDS011;20979;59.850;10.660;2024-02-21T10:04:21;2.33;;;1.80;;
8982;SDS011;20979;59.850;10.660;2024-02-21T10:06:48;1.90;;;1.73;;
8982;SDS011;20979;59.850;10.660;2024-02-21T10:09:22;2.80;;;2.47;;
8982;SDS011;20979;59.850;10.660;2024-02-21T10:11:54;2.57;;;2.27;;
8982;SDS011;20979;59.850;10.660;2024-02-21T10:14:21;2.10;;;2.00;;
8982;SDS011;20979;59.850;10.660;2024-02-21T10:16:56;3.00;;;2.13;;
8982;SDS011;20979;59.850;10.660;2024-02-21T10:19:24;1.90;;;1.80;;
8982;SDS011;20979;59.850;10.660;2024-02-21T10:22:01;1.80;;;1.70;;
8982;SDS011;20979;59.850;10.660;2024-02-21T10:24:32;1.83;;;1.60;;
8982;SDS011;20979;59.850;10.660;2024-02-21T10:27:03;2.90;;;1.80;;
8982;SDS011;20979;59.850;10.660;2024-02-21T10:29:33;2.23;;;2.03;;
8982;SDS011;20979;59.850;10.660;2024-02-21T10:32:06;1.80;;;1.70;;
8982;SDS011;20979;59.850;10.660;2024-02-21T10:34:34;1.63;;;1.53;;
8982;SDS011;20979;59.850;10.660;2024-02-21T10:37:02;1.70;;;1.60;;
8982;SDS011;20979;59.850;10.660;2024-02-21T10:39:30;2.10;;;2.00;;
8982;SDS011;20979;59.850;10.660;2024-02-21T10:41:59;1.80;;;1.70;;
8982;SDS011;20979;59.850;10.660;2024-02-21T10:44:28;2.20;;;2.10;;
8982;SDS011;20979;59.850;10.660;2024-02-21T10:46:56;2.30;;;2.10;;
8982;SDS011;20979;59.850;10.660;2024-02-21T10:49:25;2.50;;;2.30;;
8982;SDS011;20979;59.850;10.660;2024-02-21T10:51:54;3.53;;;2.00;;
8982;SDS011;20979;59.850;10.660;2024-02-21T10:54:30;3.17;;;2.20;;
8982;SDS011;20979;59.850;10.660;2024-02-21T10:57:02;2.30;;;2.10;;
8982;SDS011;20979;59.850;10.660;2024-02-21T10:59:32;2.00;;;1.90;;
8982;SDS011;20979;59.850;10.660;2024-02-21T11:02:00;1.80;;;1.70;;
8982;SDS011;20979;59.850;10.660;2024-02-21T11:04:28;2.07;;;1.90;;
8982;SDS011;20979;59.850;10.660;2024-02-21T11:06:55;1.80;;;1.70;;
8982;SDS011;20979;59.850;10.660;2024-02-21T11:09:29;1.80;;;1.70;;
8982;SDS011;20979;59.850;10.660;2024-02-21T11:11:57;1.83;;;1.70;;
8982;SDS011;20979;59.850;10.660;2024-02-21T11:14:26;1.70;;;1.60;;
8982;SDS011;20979;59.850;10.660;2024-02-21T11:16:55;1.70;;;1.60;;
8982;SDS011;20979;59.850;10.660;2024-02-21T11:19:23;1.77;;;1.67;;
8982;SDS011;20979;59.850;10.660;2024-02-21T11:21:52;1.60;;;1.50;;
8982;SDS011;20979;59.850;10.660;2024-02-21T11:24:25;1.70;;;1.60;;
8982;SDS011;20979;59.850;10.660;2024-02-21T11:26:54;2.50;;;2.27;;
8982;SDS011;20979;59.850;10.660;2024-02-21T11:29:24;2.67;;;2.37;;
8982;SDS011;20979;59.850;10.660;2024-02-21T11:31:52;3.07;;;2.77;;
8982;SDS011;20979;59.850;10.660;2024-02-21T11:34:21;3.10;;;2.80;;
8982;SDS011;20979;59.850;10.660;2024-02-21T11:36:48;3.20;;;2.90;;
8982;SDS011;20979;59.850;10.660;2024-02-21T11:39:20;3.30;;;3.00;;
8982;SDS011;20979;59.850;10.660;2024-02-21T11:41:48;3.10;;;2.80;;
8982;SDS011;20979;59.850;10.660;2024-02-21T11:44:25;3.20;;;2.90;;
8982;SDS011;20979;59.850;10.660;2024-02-21T11:46:53;3.63;;;3.00;;
8982;SDS011;20979;59.850;10.660;2024-02-21T11:49:22;3.20;;;2.90;;
8982;SDS011;20979;59.850;10.660;2024-02-21T11:51:57;3.20;;;2.97;;
8982;SDS011;20979;59.850;10.660;2024-02-21T11:54:25;3.30;;;3.00;;
8982;SDS011;20979;59.850;10.660;2024-02-21T11:56:53;2.93;;;2.70;;
8982;SDS011;20979;59.850;10.660;2024-02-21T11:59:20;3.60;;;3.30;;
8982;SDS011;20979;59.850;10.660;2024-02-21T12:01:48;3.47;;;3.17;;
8982;SDS011;20979;59.850;10.660;2024-02-21T12:04:17;3.83;;;3.27;;
8982;SDS011;20979;59.850;10.660;2024-02-21T12:06:46;3.63;;;3.33;;
8982;SDS011;20979;59.850;10.660;2024-02-21T12:09:14;3.33;;;3.03;;
8982;SDS011;20979;59.850;10.660;2024-02-21T12:11:41;3.40;;;3.10;;
8982;SDS011;20979;59.850;10.660;2024-02-21T12:14:09;3.27;;;2.97;;
8982;SDS011;20979;59.850;10.660;2024-02-21T12:16:36;3.97;;;2.70;;
8982;SDS011;20979;59.850;10.660;2024-02-21T12:19:04;3.00;;;2.80;;
8982;SDS011;20979;59.850;10.660;2024-02-21T12:21:31;4.00;;;2.80;;
8982;SDS011;20979;59.850;10.660;2024-02-21T12:24:12;2.97;;;2.77;;
8982;SDS011;20979;59.850;10.660;2024-02-21T12:26:40;2.80;;;2.60;;
8982;SDS011;20979;59.850;10.660;2024-02-21T12:29:07;2.80;;;2.60;;
8982;SDS011;20979;59.850;10.660;2024-02-21T12:31:35;2.83;;;2.50;;
8982;SDS011;20979;59.850;10.660;2024-02-21T12:34:03;3.37;;;2.90;;
8982;SDS011;20979;59.850;10.660;2024-02-21T12:36:30;2.80;;;2.60;;
8982;SDS011;20979;59.850;10.660;2024-02-21T12:38:58;3.33;;;2.67;;
8982;SDS011;20979;59.850;10.660;2024-02-21T12:41:29;2.97;;;2.77;;
8982;SDS011;20979;59.850;10.660;2024-02-21T12:43:58;3.20;;;2.60;;
8982;SDS011;20979;59.850;10.660;2024-02-21T12:46:25;3.20;;;2.90;;
8982;SDS011;20979;59.850;10.660;2024-02-21T12:48:53;3.90;;;3.27;;
8982;SDS011;20979;59.850;10.660;2024-02-21T12:51:20;3.27;;;3.07;;
8982;SDS011;20979;59.850;10.660;2024-02-21T12:53:47;4.03;;;3.57;;
8982;SDS011;20979;59.850;10.660;2024-02-21T12:56:15;3.63;;;3.20;;
8982;SDS011;20979;59.850;10.660;2024-02-21T12:58:44;3.60;;;3.27;;
8982;SDS011;20979;59.850;10.660;2024-02-21T13:01:11;3.20;;;2.90;;
8982;SDS011;20979;59.850;10.660;2024-02-21T13:03:39;5.47;;;3.93;;
8982;SDS011;20979;59.850;10.660;2024-02-21T13:06:07;3.83;;;3.53;;
8982;SDS011;20979;59.850;10.660;2024-02-21T13:08:35;4.47;;;4.00;;
8982;SDS011;20979;59.850;10.660;2024-02-21T13:11:03;4.10;;;3.70;;
8982;SDS011;20979;59.850;10.660;2024-02-21T13:13:30;4.53;;;4.10;;
8982;SDS011;20979;59.850;10.660;2024-02-21T13:15:59;5.07;;;4.40;;
8982;SDS011;20979;59.850;10.660;2024-02-21T13:18:27;5.10;;;4.40;;
8982;SDS011;20979;59.850;10.660;2024-02-21T13:20:54;6.50;;;4.70;;
8982;SDS011;20979;59.850;10.660;2024-02-21T13:23:22;6.23;;;5.60;;
8982;SDS011;20979;59.850;10.660;2024-02-21T13:25:49;6.40;;;5.07;;
8982;SDS011;20979;59.850;10.660;2024-02-21T13:28:16;5.13;;;4.63;;
8982;SDS011;20979;59.850;10.660;2024-02-21T13:30:44;5.80;;;5.00;;
8982;SDS011;20979;59.850;10.660;2024-02-21T13:33:14;5.20;;;4.50;;
8982;SDS011;20979;59.850;10.660;2024-02-21T13:35:41;6.33;;;4.77;;
8982;SDS011;20979;59.850;10.660;2024-02-21T13:38:09;5.33;;;4.83;;
8982;SDS011;20979;59.850;10.660;2024-02-21T13:40:37;6.63;;;4.60;;
8982;SDS011;20979;59.850;10.660;2024-02-21T13:43:04;5.87;;;4.77;;
8982;SDS011;20979;59.850;10.660;2024-02-21T13:45:31;5.47;;;4.80;;
8982;SDS011;20979;59.850;10.660;2024-02-21T13:47:59;6.60;;;5.47;;
8982;SDS011;20979;59.850;10.660;2024-02-21T13:50:30;5.07;;;4.20;;
8982;SDS011;20979;59.850;10.660;2024-02-21T13:52:59;5.20;;;4.10;;
8982;SDS011;20979;59.850;10.660;2024-02-21T13:55:27;6.00;;;4.40;;
8982;SDS011;20979;59.850;10.660;2024-02-21T13:57:54;4.93;;;4.43;;
8982;SDS011;20979;59.850;10.660;2024-02-21T14:00:22;5.10;;;4.60;;
8982;SDS011;20979;59.850;10.660;2024-02-21T14:02:50;6.33;;;5.10;;
8982;SDS011;20979;59.850;10.660;2024-02-21T14:05:17;4.70;;;4.23;;
8982;SDS011;20979;59.850;10.660;2024-02-21T14:07:46;6.07;;;4.37;;
8982;SDS011;20979;59.850;10.660;2024-02-21T14:10:14;5.13;;;4.33;;
8982;SDS011;20979;59.850;10.660;2024-02-21T14:12:42;4.60;;;4.13;;
8982;SDS011;20979;59.850;10.660;2024-02-21T14:15:09;5.97;;;4.67;;
8982;SDS011;20979;59.850;10.660;2024-02-21T14:17:37;4.60;;;4.20;;
8982;SDS011;20979;59.850;10.660;2024-02-21T14:20:04;5.13;;;4.40;;
8982;SDS011;20979;59.850;10.660;2024-02-21T14:22:32;5.03;;;4.50;;
8982;SDS011;20979;59.850;10.660;2024-02-21T14:25:01;4.87;;;4.20;;
8982;SDS011;20979;59.850;10.660;2024-02-21T14:27:30;4.80;;;4.27;;
8982;SDS011;20979;59.850;10.660;2024-02-21T14:29:58;5.27;;;4.73;;
8982;SDS011;20979;59.850;10.660;2024-02-21T14:32:27;5.60;;;4.60;;
8982;SDS011;20979;59.850;10.660;2024-02-21T14:34:54;4.67;;;4.27;;
8982;SDS011;20979;59.850;10.660;2024-02-21T14:37:22;5.97;;;4.70;;
8982;SDS011;20979;59.850;10.660;2024-02-21T14:39:49;5.33;;;4.33;;
8982;SDS011;20979;59.850;10.660;2024-02-21T14:42:18;6.27;;;4.43;;